sensor_id;sensor_type;location;lat;lon;timestamp;P1;durP1;ratioP1;P2;durP2;ratioP2
20861;SDS011;10591;52.532;13.348;2022-12-29T00:01:09;3.62;;;2.20;;
20861;SDS011;10591;52.532;13.348;2022-12-29T00:03:42;2.45;;;2.25;;
20861;SDS011;10591;52.532;13.348;2022-12-29T00:06:18;3.30;;;2.60;;
20861;SDS011;10591;52.532;13.348;2022-12-29T00:08:49;3.87;;;2.83;;
20861;SDS011;10591;52.532;13.348;2022-12-29T00:11:22;3.30;;;2.40;;
20861;SDS011;10591;52.532;13.348;2022-12-29T00:13:54;4.22;;;3.02;;
20861;SDS011;10591;52.532;13.348;2022-12-29T00:16:44;3.85;;;2.77;;
20861;SDS011;10591;52.532;13.348;2022-12-29T00:19:15;2.85;;;2.22;;
20861;SDS011;10591;52.532;13.348;2022-12-29T00:22:04;2.60;;;2.40;;
20861;SDS011;10591;52.532;13.348;2022-12-29T00:24:52;3.92;;;2.30;;
20861;SDS011;10591;52.532;13.348;2022-12-29T00:27:40;3.20;;;2.60;;
20861;SDS011;10591;52.532;13.348;2022-12-29T00:30:32;3.42;;;2.62;;
20861;SDS011;10591;52.532;13.348;2022-12-29T00:33:21;2.80;;;2.60;;
20861;SDS011;10591;52.532;13.348;2022-12-29T00:36:16;3.25;;;2.45;;
20861;SDS011;10591;52.532;13.348;2022-12-29T00:38:59;2.50;;;2.27;;
20861;SDS011;10591;52.532;13.348;2022-12-29T00:41:47;2.47;;;2.27;;
20861;SDS011;10591;52.532;13.348;2022-12-29T00:44:36;3.12;;;2.20;;
20861;SDS011;10591;52.532;13.348;2022-12-29T00:47:07;3.35;;;2.40;;
20861;SDS011;10591;52.532;13.348;2022-12-29T00:49:38;2.58;;;2.27;;
20861;SDS011;10591;52.532;13.348;2022-12-29T00:52:12;2.40;;;2.17;;
20861;SDS011;10591;52.532;13.348;2022-12-29T00:54:43;2.40;;;2.20;;
20861;SDS011;10591;52.532;13.348;2022-12-29T00:57:16;3.75;;;2.70;;
20861;SDS011;10591;52.532;13.348;2022-12-29T00:59:46;3.60;;;2.92;;
20861;SDS011;10591;52.532;13.348;2022-12-29T01:02:17;3.10;;;2.80;;
20861;SDS011;10591;52.532;13.348;2022-12-29T01:04:48;2.50;;;2.30;;
20861;SDS011;10591;52.532;13.348;2022-12-29T01:07:18;3.02;;;2.30;;
20861;SDS011;10591;52.532;13.348;2022-12-29T01:09:49;4.60;;;2.62;;
20861;SDS011;10591;52.532;13.348;2022-12-29T01:12:39;2.62;;;2.42;;
20861;SDS011;10591;52.532;13.348;2022-12-29T01:15:10;2.65;;;2.45;;
20861;SDS011;10591;52.532;13.348;2022-12-29T01:17:42;2.55;;;2.35;;
20861;SDS011;10591;52.532;13.348;2022-12-29T01:20:13;2.70;;;2.33;;
20861;SDS011;10591;52.532;13.348;2022-12-29T01:22:43;2.55;;;2.35;;
20861;SDS011;10591;52.532;13.348;2022-12-29T01:25:14;2.62;;;2.40;;
20861;SDS011;10591;52.532;13.348;2022-12-29T01:27:46;3.08;;;2.40;;
20861;SDS011;10591;52.532;13.348;2022-12-29T01:30:16;3.05;;;2.40;;
20861;SDS011;10591;52.532;13.348;2022-12-29T01:32:47;3.80;;;2.60;;
20861;SDS011;10591;52.532;13.348;2022-12-29T01:35:17;2.65;;;2.35;;
20861;SDS011;10591;52.532;13.348;2022-12-29T01:37:48;2.67;;;2.40;;
20861;SDS011;10591;52.532;13.348;2022-12-29T01:40:18;3.20;;;2.50;;
20861;SDS011;10591;52.532;13.348;2022-12-29T01:42:50;3.65;;;2.58;;
20861;SDS011;10591;52.532;13.348;2022-12-29T01:45:22;2.85;;;2.58;;
20861;SDS011;10591;52.532;13.348;2022-12-29T01:47:57;3.90;;;2.15;;
20861;SDS011;10591;52.532;13.348;2022-12-29T01:50:42;3.83;;;2.42;;
20861;SDS011;10591;52.532;13.348;2022-12-29T01:53:10;3.87;;;2.87;;
20861;SDS011;10591;52.532;13.348;2022-12-29T01:55:44;3.27;;;2.20;;
20861;SDS011;10591;52.532;13.348;2022-12-29T01:58:18;2.90;;;2.60;;
20861;SDS011;10591;52.532;13.348;2022-12-29T02:00:53;2.37;;;2.25;;
20861;SDS011;10591;52.532;13.348;2022-12-29T02:03:23;4.75;;;2.92;;
20861;SDS011;10591;52.532;13.348;2022-12-29T02:05:57;3.50;;;2.37;;
20861;SDS011;10591;52.532;13.348;2022-12-29T02:08:35;2.58;;;2.37;;
20861;SDS011;10591;52.532;13.348;2022-12-29T02:11:07;2.40;;;2.20;;
20861;SDS011;10591;52.532;13.348;2022-12-29T02:13:39;3.02;;;2.83;;
20861;SDS011;10591;52.532;13.348;2022-12-29T02:27:31;3.08;;;2.10;;
20861;SDS011;10591;52.532;13.348;2022-12-29T02:30:30;2.50;;;2.30;;
20861;SDS011;10591;52.532;13.348;2022-12-29T02:36:16;2.75;;;2.55;;
20861;SDS011;10591;52.532;13.348;2022-12-29T02:44:50;3.47;;;2.60;;
20861;SDS011;10591;52.532;13.348;2022-12-29T02:47:23;3.65;;;2.27;;
20861;SDS011;10591;52.532;13.348;2022-12-29T02:50:02;2.58;;;2.37;;
20861;SDS011;10591;52.532;13.348;2022-12-29T02:52:39;3.05;;;2.75;;
20861;SDS011;10591;52.532;13.348;2022-12-29T02:55:17;2.70;;;2.50;;
20861;SDS011;10591;52.532;13.348;2022-12-29T02:57:48;2.77;;;2.30;;
20861;SDS011;10591;52.532;13.348;2022-12-29T03:00:19;3.67;;;2.40;;
20861;SDS011;10591;52.532;13.348;2022-12-29T03:05:35;2.57;;;2.30;;
20861;SDS011;10591;52.532;13.348;2022-12-29T03:08:28;2.72;;;2.20;;
20861;SDS011;10591;52.532;13.348;2022-12-29T03:11:09;2.92;;;2.22;;
20861;SDS011;10591;52.532;13.348;2022-12-29T03:14:02;2.22;;;2.02;;
20861;SDS011;10591;52.532;13.348;2022-12-29T03:16:59;2.20;;;2.05;;
20861;SDS011;10591;52.532;13.348;2022-12-29T03:19:36;2.72;;;2.00;;
20861;SDS011;10591;52.532;13.348;2022-12-29T03:22:10;2.47;;;2.05;;
20861;SDS011;10591;52.532;13.348;2022-12-29T03:27:47;2.87;;;2.22;;
20861;SDS011;10591;52.532;13.348;2022-12-29T03:30:18;2.77;;;2.05;;
20861;SDS011;10591;52.532;13.348;2022-12-29T03:32:51;2.67;;;2.47;;
20861;SDS011;10591;52.532;13.348;2022-12-29T03:35:24;2.47;;;2.27;;
20861;SDS011;10591;52.532;13.348;2022-12-29T03:38:00;2.50;;;2.30;;
20861;SDS011;10591;52.532;13.348;2022-12-29T03:40:35;2.90;;;2.25;;
20861;SDS011;10591;52.532;13.348;2022-12-29T03:43:09;3.15;;;2.30;;
20861;SDS011;10591;52.532;13.348;2022-12-29T03:45:41;3.83;;;2.10;;
20861;SDS011;10591;52.532;13.348;2022-12-29T03:48:13;2.45;;;2.25;;
20861;SDS011;10591;52.532;13.348;2022-12-29T03:50:44;3.37;;;2.00;;
20861;SDS011;10591;52.532;13.348;2022-12-29T03:53:16;2.60;;;2.02;;
20861;SDS011;10591;52.532;13.348;2022-12-29T03:55:47;3.30;;;2.52;;
20861;SDS011;10591;52.532;13.348;2022-12-29T03:58:18;2.17;;;2.05;;
20861;SDS011;10591;52.532;13.348;2022-12-29T04:00:48;3.00;;;2.10;;
20861;SDS011;10591;52.532;13.348;2022-12-29T04:03:19;2.30;;;2.00;;
20861;SDS011;10591;52.532;13.348;2022-12-29T04:05:49;2.27;;;2.10;;
20861;SDS011;10591;52.532;13.348;2022-12-29T04:08:21;2.45;;;2.25;;
20861;SDS011;10591;52.532;13.348;2022-12-29T04:10:51;2.40;;;2.20;;
20861;SDS011;10591;52.532;13.348;2022-12-29T04:13:23;2.72;;;1.98;;
20861;SDS011;10591;52.532;13.348;2022-12-29T04:15:53;2.47;;;2.27;;
20861;SDS011;10591;52.532;13.348;2022-12-29T04:18:25;2.85;;;1.92;;
20861;SDS011;10591;52.532;13.348;2022-12-29T04:20:56;2.75;;;1.95;;
20861;SDS011;10591;52.532;13.348;2022-12-29T04:23:30;2.98;;;2.20;;
20861;SDS011;10591;52.532;13.348;2022-12-29T04:26:03;2.67;;;2.00;;
20861;SDS011;10591;52.532;13.348;2022-12-29T04:28:36;2.40;;;2.20;;
20861;SDS011;10591;52.532;13.348;2022-12-29T04:31:08;2.52;;;2.10;;
20861;SDS011;10591;52.532;13.348;2022-12-29T04:33:39;2.52;;;2.00;;
20861;SDS011;10591;52.532;13.348;2022-12-29T04:36:09;2.10;;;1.90;;
20861;SDS011;10591;52.532;13.348;2022-12-29T04:38:41;2.35;;;2.15;;
20861;SDS011;10591;52.532;13.348;2022-12-29T04:41:12;2.52;;;2.33;;
20861;SDS011;10591;52.532;13.348;2022-12-29T04:43:42;2.40;;;2.20;;
20861;SDS011;10591;52.532;13.348;2022-12-29T04:46:13;5.08;;;2.50;;
20861;SDS011;10591;52.532;13.348;2022-12-29T04:48:44;4.83;;;2.45;;
20861;SDS011;10591;52.532;13.348;2022-12-29T04:51:15;2.12;;;1.92;;
20861;SDS011;10591;52.532;13.348;2022-12-29T04:53:46;3.15;;;2.25;;
20861;SDS011;10591;52.532;13.348;2022-12-29T04:56:17;2.58;;;2.25;;
20861;SDS011;10591;52.532;13.348;2022-12-29T04:58:49;2.77;;;1.80;;
20861;SDS011;10591;52.532;13.348;2022-12-29T05:01:21;2.58;;;2.02;;
20861;SDS011;10591;52.532;13.348;2022-12-29T05:03:52;3.98;;;2.10;;
20861;SDS011;10591;52.532;13.348;2022-12-29T05:06:23;3.12;;;1.95;;
20861;SDS011;10591;52.532;13.348;2022-12-29T05:08:54;2.40;;;2.20;;
20861;SDS011;10591;52.532;13.348;2022-12-29T05:11:24;2.25;;;2.05;;
20861;SDS011;10591;52.532;13.348;2022-12-29T05:13:55;2.67;;;2.10;;
20861;SDS011;10591;52.532;13.348;2022-12-29T05:16:25;2.50;;;2.30;;
20861;SDS011;10591;52.532;13.348;2022-12-29T05:18:56;2.30;;;2.10;;
20861;SDS011;10591;52.532;13.348;2022-12-29T05:21:26;2.33;;;2.00;;
20861;SDS011;10591;52.532;13.348;2022-12-29T05:23:57;2.40;;;2.20;;
20861;SDS011;10591;52.532;13.348;2022-12-29T05:26:28;2.67;;;2.08;;
20861;SDS011;10591;52.532;13.348;2022-12-29T05:28:58;2.35;;;2.00;;
20861;SDS011;10591;52.532;13.348;2022-12-29T05:31:29;2.33;;;2.12;;
20861;SDS011;10591;52.532;13.348;2022-12-29T05:33:59;2.40;;;1.70;;
20861;SDS011;10591;52.532;13.348;2022-12-29T05:36:30;2.75;;;2.15;;
20861;SDS011;10591;52.532;13.348;2022-12-29T05:39:02;2.62;;;2.37;;
20861;SDS011;10591;52.532;13.348;2022-12-29T05:41:34;3.00;;;2.00;;
20861;SDS011;10591;52.532;13.348;2022-12-29T05:44:05;2.95;;;2.40;;
20861;SDS011;10591;52.532;13.348;2022-12-29T05:46:36;2.75;;;2.30;;
20861;SDS011;10591;52.532;13.348;2022-12-29T05:49:08;2.12;;;2.02;;
20861;SDS011;10591;52.532;13.348;2022-12-29T05:51:40;2.98;;;2.02;;
20861;SDS011;10591;52.532;13.348;2022-12-29T05:54:11;2.35;;;2.05;;
20861;SDS011;10591;52.532;13.348;2022-12-29T05:56:42;1.98;;;1.85;;
20861;SDS011;10591;52.532;13.348;2022-12-29T05:59:15;2.35;;;2.02;;
20861;SDS011;10591;52.532;13.348;2022-12-29T06:01:46;2.42;;;2.17;;
20861;SDS011;10591;52.532;13.348;2022-12-29T06:04:16;2.47;;;2.00;;
20861;SDS011;10591;52.532;13.348;2022-12-29T06:06:47;3.10;;;2.30;;
20861;SDS011;10591;52.532;13.348;2022-12-29T06:09:17;4.28;;;2.05;;
20861;SDS011;10591;52.532;13.348;2022-12-29T06:11:48;2.87;;;2.20;;
20861;SDS011;10591;52.532;13.348;2022-12-29T06:14:18;2.47;;;2.12;;
20861;SDS011;10591;52.532;13.348;2022-12-29T06:16:49;2.40;;;2.20;;
20861;SDS011;10591;52.532;13.348;2022-12-29T06:19:19;2.05;;;1.95;;
20861;SDS011;10591;52.532;13.348;2022-12-29T06:21:50;2.37;;;2.10;;
20861;SDS011;10591;52.532;13.348;2022-12-29T06:24:21;3.15;;;2.10;;
20861;SDS011;10591;52.532;13.348;2022-12-29T06:26:52;2.22;;;2.00;;
20861;SDS011;10591;52.532;13.348;2022-12-29T06:29:23;2.42;;;2.17;;
20861;SDS011;10591;52.532;13.348;2022-12-29T06:31:53;2.83;;;2.52;;
20861;SDS011;10591;52.532;13.348;2022-12-29T06:34:26;2.15;;;1.90;;
20861;SDS011;10591;52.532;13.348;2022-12-29T06:36:56;2.10;;;1.90;;
20861;SDS011;10591;52.532;13.348;2022-12-29T06:39:27;2.15;;;1.95;;
20861;SDS011;10591;52.532;13.348;2022-12-29T06:42:00;3.45;;;1.80;;
20861;SDS011;10591;52.532;13.348;2022-12-29T06:44:31;2.30;;;1.90;;
20861;SDS011;10591;52.532;13.348;2022-12-29T06:47:02;2.50;;;2.20;;
20861;SDS011;10591;52.532;13.348;2022-12-29T06:49:32;3.05;;;2.02;;
20861;SDS011;10591;52.532;13.348;2022-12-29T06:52:03;3.25;;;1.80;;
20861;SDS011;10591;52.532;13.348;2022-12-29T06:54:35;1.98;;;1.82;;
20861;SDS011;10591;52.532;13.348;2022-12-29T06:57:06;2.00;;;1.82;;
20861;SDS011;10591;52.532;13.348;2022-12-29T06:59:40;1.92;;;1.82;;
20861;SDS011;10591;52.532;13.348;2022-12-29T07:02:12;2.00;;;1.80;;
20861;SDS011;10591;52.532;13.348;2022-12-29T07:04:47;2.00;;;1.80;;
20861;SDS011;10591;52.532;13.348;2022-12-29T07:07:18;1.80;;;1.70;;
20861;SDS011;10591;52.532;13.348;2022-12-29T07:09:50;2.95;;;2.42;;
20861;SDS011;10591;52.532;13.348;2022-12-29T07:12:22;1.92;;;1.62;;
20861;SDS011;10591;52.532;13.348;2022-12-29T07:14:54;1.90;;;1.70;;
20861;SDS011;10591;52.532;13.348;2022-12-29T07:17:26;2.05;;;1.90;;
20861;SDS011;10591;52.532;13.348;2022-12-29T07:19:58;1.82;;;1.72;;
20861;SDS011;10591;52.532;13.348;2022-12-29T07:22:28;3.22;;;1.70;;
20861;SDS011;10591;52.532;13.348;2022-12-29T07:25:00;2.45;;;1.70;;
20861;SDS011;10591;52.532;13.348;2022-12-29T07:27:32;2.10;;;1.90;;
20861;SDS011;10591;52.532;13.348;2022-12-29T07:30:03;2.17;;;1.77;;
20861;SDS011;10591;52.532;13.348;2022-12-29T07:32:34;2.20;;;2.00;;
20861;SDS011;10591;52.532;13.348;2022-12-29T07:35:06;2.30;;;1.95;;
20861;SDS011;10591;52.532;13.348;2022-12-29T07:37:36;1.80;;;1.70;;
20861;SDS011;10591;52.532;13.348;2022-12-29T07:40:08;2.58;;;2.17;;
20861;SDS011;10591;52.532;13.348;2022-12-29T07:42:39;2.00;;;1.90;;
20861;SDS011;10591;52.532;13.348;2022-12-29T07:45:12;1.90;;;1.80;;
20861;SDS011;10591;52.532;13.348;2022-12-29T07:47:47;2.22;;;1.57;;
20861;SDS011;10591;52.532;13.348;2022-12-29T07:50:19;1.90;;;1.80;;
20861;SDS011;10591;52.532;13.348;2022-12-29T07:52:50;1.80;;;1.70;;
20861;SDS011;10591;52.532;13.348;2022-12-29T07:55:21;1.80;;;1.70;;
20861;SDS011;10591;52.532;13.348;2022-12-29T07:57:54;2.75;;;1.90;;
20861;SDS011;10591;52.532;13.348;2022-12-29T08:00:25;3.00;;;1.92;;
20861;SDS011;10591;52.532;13.348;2022-12-29T08:02:56;1.80;;;1.70;;
20861;SDS011;10591;52.532;13.348;2022-12-29T08:05:27;1.77;;;1.67;;
20861;SDS011;10591;52.532;13.348;2022-12-29T08:08:01;1.65;;;1.55;;
20861;SDS011;10591;52.532;13.348;2022-12-29T08:10:31;2.35;;;1.92;;
20861;SDS011;10591;52.532;13.348;2022-12-29T08:13:04;2.37;;;1.80;;
20861;SDS011;10591;52.532;13.348;2022-12-29T08:15:37;2.17;;;1.82;;
20861;SDS011;10591;52.532;13.348;2022-12-29T08:18:11;2.27;;;1.80;;
20861;SDS011;10591;52.532;13.348;2022-12-29T08:20:43;2.87;;;1.80;;
20861;SDS011;10591;52.532;13.348;2022-12-29T08:23:16;2.02;;;1.60;;
20861;SDS011;10591;52.532;13.348;2022-12-29T08:25:47;1.92;;;1.70;;
20861;SDS011;10591;52.532;13.348;2022-12-29T08:28:21;2.08;;;1.80;;
20861;SDS011;10591;52.532;13.348;2022-12-29T08:30:52;1.92;;;1.70;;
20861;SDS011;10591;52.532;13.348;2022-12-29T08:33:23;1.90;;;1.80;;
20861;SDS011;10591;52.532;13.348;2022-12-29T08:36:00;2.55;;;1.92;;
20861;SDS011;10591;52.532;13.348;2022-12-29T08:38:33;2.50;;;2.30;;
20861;SDS011;10591;52.532;13.348;2022-12-29T08:41:03;2.20;;;1.70;;
20861;SDS011;10591;52.532;13.348;2022-12-29T08:43:34;2.30;;;2.10;;
20861;SDS011;10591;52.532;13.348;2022-12-29T08:46:05;2.10;;;1.70;;
20861;SDS011;10591;52.532;13.348;2022-12-29T08:48:36;2.12;;;1.77;;
20861;SDS011;10591;52.532;13.348;2022-12-29T08:51:06;3.35;;;1.95;;
20861;SDS011;10591;52.532;13.348;2022-12-29T08:53:39;3.08;;;1.82;;
20861;SDS011;10591;52.532;13.348;2022-12-29T08:56:11;2.50;;;1.80;;
20861;SDS011;10591;52.532;13.348;2022-12-29T08:58:41;1.82;;;1.72;;
20861;SDS011;10591;52.532;13.348;2022-12-29T09:01:13;2.37;;;2.17;;
20861;SDS011;10591;52.532;13.348;2022-12-29T09:03:43;2.08;;;1.60;;
20861;SDS011;10591;52.532;13.348;2022-12-29T09:06:16;1.90;;;1.70;;
20861;SDS011;10591;52.532;13.348;2022-12-29T09:08:47;3.33;;;2.20;;
20861;SDS011;10591;52.532;13.348;2022-12-29T09:11:19;3.98;;;1.92;;
20861;SDS011;10591;52.532;13.348;2022-12-29T09:13:52;2.77;;;1.92;;
20861;SDS011;10591;52.532;13.348;2022-12-29T09:16:23;2.15;;;1.90;;
20861;SDS011;10591;52.532;13.348;2022-12-29T09:18:56;2.30;;;1.90;;
20861;SDS011;10591;52.532;13.348;2022-12-29T09:21:26;2.95;;;1.90;;
20861;SDS011;10591;52.532;13.348;2022-12-29T09:23:57;2.90;;;2.02;;
20861;SDS011;10591;52.532;13.348;2022-12-29T09:26:27;2.15;;;1.90;;
20861;SDS011;10591;52.532;13.348;2022-12-29T09:28:59;2.25;;;2.05;;
20861;SDS011;10591;52.532;13.348;2022-12-29T09:31:31;3.70;;;1.42;;
20861;SDS011;10591;52.532;13.348;2022-12-29T09:34:01;1.98;;;1.80;;
20861;SDS011;10591;52.532;13.348;2022-12-29T09:36:32;2.15;;;1.80;;
20861;SDS011;10591;52.532;13.348;2022-12-29T09:39:02;2.62;;;1.82;;
20861;SDS011;10591;52.532;13.348;2022-12-29T09:41:41;2.95;;;1.80;;
20861;SDS011;10591;52.532;13.348;2022-12-29T09:47:00;3.22;;;1.70;;
20861;SDS011;10591;52.532;13.348;2022-12-29T09:52:31;2.47;;;1.70;;
20861;SDS011;10591;52.532;13.348;2022-12-29T09:55:04;1.82;;;1.50;;
20861;SDS011;10591;52.532;13.348;2022-12-29T09:57:40;1.92;;;1.70;;
20861;SDS011;10591;52.532;13.348;2022-12-29T10:00:22;1.90;;;1.70;;
20861;SDS011;10591;52.532;13.348;2022-12-29T10:02:56;2.05;;;1.85;;
20861;SDS011;10591;52.532;13.348;2022-12-29T10:05:36;3.50;;;2.30;;
20861;SDS011;10591;52.532;13.348;2022-12-29T10:16:20;3.33;;;2.20;;
20861;SDS011;10591;52.532;13.348;2022-12-29T10:19:00;2.55;;;2.05;;
20861;SDS011;10591;52.532;13.348;2022-12-29T10:21:49;1.70;;;1.60;;
20861;SDS011;10591;52.532;13.348;2022-12-29T10:24:29;2.83;;;2.00;;
20861;SDS011;10591;52.532;13.348;2022-12-29T10:27:01;1.92;;;1.80;;
20861;SDS011;10591;52.532;13.348;2022-12-29T10:29:36;2.45;;;1.87;;
20861;SDS011;10591;52.532;13.348;2022-12-29T10:35:11;2.67;;;1.65;;
20861;SDS011;10591;52.532;13.348;2022-12-29T10:38:05;2.12;;;1.60;;
20861;SDS011;10591;52.532;13.348;2022-12-29T10:40:42;2.90;;;1.70;;
20861;SDS011;10591;52.532;13.348;2022-12-29T10:46:12;2.52;;;2.00;;
20861;SDS011;10591;52.532;13.348;2022-12-29T10:48:43;2.25;;;1.80;;
20861;SDS011;10591;52.532;13.348;2022-12-29T10:51:23;2.92;;;1.70;;
20861;SDS011;10591;52.532;13.348;2022-12-29T10:54:05;1.92;;;1.82;;
20861;SDS011;10591;52.532;13.348;2022-12-29T10:56:42;2.72;;;2.10;;
20861;SDS011;10591;52.532;13.348;2022-12-29T10:59:27;4.20;;;1.90;;
20861;SDS011;10591;52.532;13.348;2022-12-29T11:04:57;2.05;;;1.85;;
20861;SDS011;10591;52.532;13.348;2022-12-29T11:07:37;3.25;;;1.80;;
20861;SDS011;10591;52.532;13.348;2022-12-29T11:10:19;1.62;;;1.52;;
20861;SDS011;10591;52.532;13.348;2022-12-29T11:12:57;2.40;;;1.80;;
20861;SDS011;10591;52.532;13.348;2022-12-29T11:15:39;2.40;;;2.00;;
20861;SDS011;10591;52.532;13.348;2022-12-29T11:18:21;2.75;;;2.25;;
20861;SDS011;10591;52.532;13.348;2022-12-29T11:20:55;2.00;;;1.80;;
20861;SDS011;10591;52.532;13.348;2022-12-29T11:23:38;2.87;;;1.75;;
20861;SDS011;10591;52.532;13.348;2022-12-29T11:26:20;1.92;;;1.60;;
20861;SDS011;10591;52.532;13.348;2022-12-29T11:31:48;1.82;;;1.65;;
20861;SDS011;10591;52.532;13.348;2022-12-29T11:34:35;2.08;;;1.50;;
20861;SDS011;10591;52.532;13.348;2022-12-29T11:40:04;2.02;;;1.50;;
20861;SDS011;10591;52.532;13.348;2022-12-29T11:43:02;1.57;;;1.47;;
20861;SDS011;10591;52.532;13.348;2022-12-29T11:45:31;2.77;;;1.70;;
20861;SDS011;10591;52.532;13.348;2022-12-29T11:48:13;2.65;;;1.75;;
20861;SDS011;10591;52.532;13.348;2022-12-29T11:50:55;1.75;;;1.40;;
20861;SDS011;10591;52.532;13.348;2022-12-29T11:53:39;2.35;;;1.77;;
20861;SDS011;10591;52.532;13.348;2022-12-29T11:56:20;1.65;;;1.55;;
20861;SDS011;10591;52.532;13.348;2022-12-29T11:58:51;3.15;;;1.80;;
20861;SDS011;10591;52.532;13.348;2022-12-29T12:01:28;1.62;;;1.45;;
20861;SDS011;10591;52.532;13.348;2022-12-29T12:04:06;1.57;;;1.42;;
20861;SDS011;10591;52.532;13.348;2022-12-29T12:06:45;1.32;;;1.22;;
20861;SDS011;10591;52.532;13.348;2022-12-29T12:09:30;2.58;;;1.27;;
20861;SDS011;10591;52.532;13.348;2022-12-29T12:11:58;2.02;;;1.47;;
20861;SDS011;10591;52.532;13.348;2022-12-29T12:17:11;1.60;;;1.40;;
20861;SDS011;10591;52.532;13.348;2022-12-29T12:19:58;1.87;;;1.50;;
20861;SDS011;10591;52.532;13.348;2022-12-29T12:22:41;1.70;;;1.57;;
20861;SDS011;10591;52.532;13.348;2022-12-29T12:27:52;1.95;;;1.65;;
20861;SDS011;10591;52.532;13.348;2022-12-29T12:30:25;1.85;;;1.60;;
20861;SDS011;10591;52.532;13.348;2022-12-29T12:35:44;1.70;;;1.60;;
20861;SDS011;10591;52.532;13.348;2022-12-29T12:41:21;1.72;;;1.42;;
20861;SDS011;10591;52.532;13.348;2022-12-29T12:58:19;1.50;;;1.40;;
20861;SDS011;10591;52.532;13.348;2022-12-29T13:04:26;1.85;;;1.35;;
20861;SDS011;10591;52.532;13.348;2022-12-29T13:07:21;2.85;;;1.67;;
20861;SDS011;10591;52.532;13.348;2022-12-29T13:23:46;1.70;;;1.50;;
20861;SDS011;10591;52.532;13.348;2022-12-29T13:26:19;1.70;;;1.60;;
20861;SDS011;10591;52.532;13.348;2022-12-29T13:37:33;2.37;;;1.87;;
20861;SDS011;10591;52.532;13.348;2022-12-29T13:40:11;2.00;;;1.60;;
20861;SDS011;10591;52.532;13.348;2022-12-29T13:42:43;2.37;;;1.70;;
20861;SDS011;10591;52.532;13.348;2022-12-29T13:45:21;2.50;;;1.57;;
20861;SDS011;10591;52.532;13.348;2022-12-29T13:47:55;2.50;;;1.70;;
20861;SDS011;10591;52.532;13.348;2022-12-29T13:50:27;2.00;;;1.75;;
20861;SDS011;10591;52.532;13.348;2022-12-29T13:55:55;2.15;;;1.50;;
20861;SDS011;10591;52.532;13.348;2022-12-29T13:58:33;1.70;;;1.60;;
20861;SDS011;10591;52.532;13.348;2022-12-29T14:04:12;4.42;;;2.22;;
20861;SDS011;10591;52.532;13.348;2022-12-29T14:06:45;4.25;;;1.95;;
20861;SDS011;10591;52.532;13.348;2022-12-29T14:12:20;2.00;;;1.90;;
20861;SDS011;10591;52.532;13.348;2022-12-29T14:14:53;3.80;;;2.30;;
20861;SDS011;10591;52.532;13.348;2022-12-29T14:17:25;2.67;;;2.20;;
20861;SDS011;10591;52.532;13.348;2022-12-29T14:19:57;2.52;;;2.25;;
20861;SDS011;10591;52.532;13.348;2022-12-29T14:22:28;2.85;;;2.00;;
20861;SDS011;10591;52.532;13.348;2022-12-29T14:25:00;2.20;;;2.00;;
20861;SDS011;10591;52.532;13.348;2022-12-29T14:27:44;2.58;;;2.22;;
20861;SDS011;10591;52.532;13.348;2022-12-29T14:33:19;2.40;;;2.20;;
20861;SDS011;10591;52.532;13.348;2022-12-29T14:35:51;2.90;;;2.70;;
20861;SDS011;10591;52.532;13.348;2022-12-29T14:38:28;4.83;;;2.42;;
20861;SDS011;10591;52.532;13.348;2022-12-29T14:41:15;2.45;;;2.02;;
20861;SDS011;10591;52.532;13.348;2022-12-29T14:43:59;2.67;;;2.22;;
20861;SDS011;10591;52.532;13.348;2022-12-29T14:46:55;2.75;;;2.30;;
20861;SDS011;10591;52.532;13.348;2022-12-29T14:49:31;2.98;;;2.60;;
20861;SDS011;10591;52.532;13.348;2022-12-29T14:52:06;2.72;;;2.40;;
20861;SDS011;10591;52.532;13.348;2022-12-29T14:57:33;4.10;;;3.00;;
20861;SDS011;10591;52.532;13.348;2022-12-29T14:59:56;2.60;;;2.40;;
20861;SDS011;10591;52.532;13.348;2022-12-29T15:02:33;2.70;;;2.35;;
20861;SDS011;10591;52.532;13.348;2022-12-29T15:05:02;3.45;;;3.00;;
20861;SDS011;10591;52.532;13.348;2022-12-29T15:07:36;2.77;;;2.30;;
20861;SDS011;10591;52.532;13.348;2022-12-29T15:10:11;2.33;;;2.10;;
20861;SDS011;10591;52.532;13.348;2022-12-29T15:12:43;4.67;;;2.80;;
20861;SDS011;10591;52.532;13.348;2022-12-29T15:15:24;3.17;;;2.15;;
20861;SDS011;10591;52.532;13.348;2022-12-29T15:18:11;2.47;;;1.62;;
20861;SDS011;10591;52.532;13.348;2022-12-29T15:20:32;2.15;;;1.62;;
20861;SDS011;10591;52.532;13.348;2022-12-29T15:23:08;2.08;;;1.65;;
20861;SDS011;10591;52.532;13.348;2022-12-29T15:25:50;1.95;;;1.67;;
20861;SDS011;10591;52.532;13.348;2022-12-29T15:28:25;1.82;;;1.70;;
20861;SDS011;10591;52.532;13.348;2022-12-29T15:31:21;2.17;;;1.90;;
20861;SDS011;10591;52.532;13.348;2022-12-29T15:33:36;2.00;;;1.80;;
20861;SDS011;10591;52.532;13.348;2022-12-29T15:36:10;2.47;;;2.27;;
20861;SDS011;10591;52.532;13.348;2022-12-29T15:38:43;3.02;;;2.17;;
20861;SDS011;10591;52.532;13.348;2022-12-29T15:41:18;2.95;;;2.42;;
20861;SDS011;10591;52.532;13.348;2022-12-29T15:44:17;2.47;;;2.27;;
20861;SDS011;10591;52.532;13.348;2022-12-29T15:46:45;3.65;;;2.90;;
20861;SDS011;10591;52.532;13.348;2022-12-29T15:49:17;4.03;;;2.10;;
20861;SDS011;10591;52.532;13.348;2022-12-29T15:51:51;2.95;;;2.30;;
20861;SDS011;10591;52.532;13.348;2022-12-29T15:54:21;5.67;;;2.80;;
20861;SDS011;10591;52.532;13.348;2022-12-29T15:56:53;3.58;;;2.20;;
20861;SDS011;10591;52.532;13.348;2022-12-29T15:59:28;3.58;;;2.60;;
20861;SDS011;10591;52.532;13.348;2022-12-29T16:02:00;3.42;;;2.60;;
20861;SDS011;10591;52.532;13.348;2022-12-29T16:04:33;2.87;;;2.47;;
20861;SDS011;10591;52.532;13.348;2022-12-29T16:07:25;2.40;;;2.20;;
20861;SDS011;10591;52.532;13.348;2022-12-29T16:10:05;2.67;;;2.40;;
20861;SDS011;10591;52.532;13.348;2022-12-29T16:12:37;3.22;;;2.30;;
20861;SDS011;10591;52.532;13.348;2022-12-29T16:15:11;4.53;;;2.80;;
20861;SDS011;10591;52.532;13.348;2022-12-29T16:17:46;3.17;;;2.60;;
20861;SDS011;10591;52.532;13.348;2022-12-29T16:20:23;3.35;;;2.30;;
20861;SDS011;10591;52.532;13.348;2022-12-29T16:22:57;3.42;;;2.25;;
20861;SDS011;10591;52.532;13.348;2022-12-29T16:25:31;3.50;;;2.52;;
20861;SDS011;10591;52.532;13.348;2022-12-29T16:28:14;3.52;;;2.83;;
20861;SDS011;10591;52.532;13.348;2022-12-29T16:30:56;3.93;;;3.33;;
20861;SDS011;10591;52.532;13.348;2022-12-29T16:33:38;3.17;;;2.20;;
20861;SDS011;10591;52.532;13.348;2022-12-29T16:36:22;3.05;;;2.37;;
20861;SDS011;10591;52.532;13.348;2022-12-29T16:41:53;2.77;;;2.20;;
20861;SDS011;10591;52.532;13.348;2022-12-29T16:44:28;2.77;;;2.25;;
20861;SDS011;10591;52.532;13.348;2022-12-29T16:47:02;3.40;;;2.50;;
20861;SDS011;10591;52.532;13.348;2022-12-29T16:49:34;2.25;;;1.90;;
20861;SDS011;10591;52.532;13.348;2022-12-29T16:52:19;5.28;;;2.30;;
20861;SDS011;10591;52.532;13.348;2022-12-29T16:54:56;2.98;;;1.70;;
20861;SDS011;10591;52.532;13.348;2022-12-29T16:57:31;3.10;;;1.80;;
20861;SDS011;10591;52.532;13.348;2022-12-29T17:00:06;3.40;;;1.80;;
20861;SDS011;10591;52.532;13.348;2022-12-29T17:02:37;2.40;;;1.95;;
20861;SDS011;10591;52.532;13.348;2022-12-29T17:05:13;3.77;;;1.90;;
20861;SDS011;10591;52.532;13.348;2022-12-29T17:07:45;2.87;;;1.80;;
20861;SDS011;10591;52.532;13.348;2022-12-29T17:10:18;2.65;;;1.70;;
20861;SDS011;10591;52.532;13.348;2022-12-29T17:12:48;4.80;;;1.90;;
20861;SDS011;10591;52.532;13.348;2022-12-29T17:15:23;3.40;;;2.15;;
20861;SDS011;10591;52.532;13.348;2022-12-29T17:17:59;2.10;;;1.75;;
20861;SDS011;10591;52.532;13.348;2022-12-29T17:20:30;4.65;;;2.02;;